Aérodrome :
LOGIN :

S'inscrire | Disclaimer

   EN    FR    IT 

 










Légende :    VFR   VFR Marginal   IFR   IFR Intensif   IFR Très Intensif
Visi : 
Plafond : 
>= 8 km
>= 3000ft
5 à 8 km
1000 à 3000 ft
1500m à 5 km
500 à 1000 ft
800 à 1500m
200 à 500 ft
< 800m
< 200 ft
Symboles :   Orages  Brouillard  Fortes neiges  Fortes précipitations  Vent > 20 kt
SIGMETs :   Divers  Orages  Givrage  Turbulence  Onde Orograph.  Cendres Volcan.







- Altitude de l'aérodrome : 1197 ft
- Code IATA : SPM


ETAD - Spangdahlem Ab

DERNIER METAR :
  • 210656Z AUTO 06009KT 9999 OVC095 01/M01 A2987 RMK AO2 SLP123 T00091009 $

METARs EXPIRÉS :
  • 210556Z AUTO 08007KT 9999 OVC095 01/M01 A2985 RMK AO2 SLP116 T00111008 10013 20008 52013 $
  • 210456Z AUTO 08010KT 9999 OVC090 01/M01 A2983 RMK AO2 SLP110 T00121007 $

TAF AMD TAF ETAD
Valide du 21 à 07h jusqu'au 22 à 11h UTC


210703Z 2107/2211 05006KT 9999 FEW007 OVC090 QNH2979INS
BECMG 2108/2109 05009KT 9999 FEW007 BKN030 QNH2987INS
BECMG 2118/2119 09009KT 9999 BKN010 QNH2997INS
BECMG 2121/2122 VRB06KT 9000 -DZ BKN005 OVC010 QNH2998INS
BECMG 2205/2206 VRB06KT 8000 BR BKN005 BKN010 QNH2998INS TX03/2114Z TNM01/2204Z LAST NO AMDS AFT 2121 NEXT 2205
Pas de NOTAMs connus pour ce terrain.



MET'MAP, la Météo Aéronautique d'un coup d'oeil ! - Copyright ORBIFLY Décembre 2007 - Disclaimer

ORBIFLY MET'MAP TEAM :

Programmation & Développement : Alexandra Zaïnal
Conception & Développement : Baudouin d'Aumeries
Co-Programmation & Développement : Marc-Olivier Méhu
Soutien technique & logistique : Manuel Goepfert

Contact : metmap@orbifly.com




SOURCES & CREDITS :

   NOAA